createdAt,value
2023-01-25T00:02:08.180Z,6.45
2023-01-25T00:04:35.221Z,6.44
2023-01-25T00:07:01.792Z,6.44
2023-01-25T00:09:28.350Z,6.44
2023-01-25T00:11:56.464Z,6.51
2023-01-25T00:14:23.408Z,6.58
2023-01-25T00:16:50.323Z,6.64
2023-01-25T00:19:17.048Z,6.62
2023-01-25T00:21:43.892Z,6.65
2023-01-25T00:24:11.944Z,6.64
2023-01-25T00:26:39.292Z,6.55
2023-01-25T00:29:06.244Z,6.64
2023-01-25T00:31:49.298Z,6.59
2023-01-25T00:34:25.174Z,6.53
2023-01-25T00:36:55.137Z,6.51
2023-01-25T00:39:21.755Z,6.47
2023-01-25T00:41:48.371Z,6.39
2023-01-25T00:44:15.161Z,6.26
2023-01-25T00:46:41.710Z,6.24
2023-01-25T00:49:26.044Z,6.28
2023-01-25T00:51:53.937Z,6.36
2023-01-25T00:54:20.951Z,6.42
2023-01-25T00:56:47.517Z,6.25
2023-01-25T00:59:14.627Z,6.22
2023-01-25T01:01:42.493Z,6.05
2023-01-25T01:04:09.835Z,6.13
2023-01-25T01:06:37.366Z,6.22
2023-01-25T01:09:04.589Z,6.21
2023-01-25T01:11:32.235Z,6.16
2023-01-25T01:13:59.785Z,6.09
2023-01-25T01:16:27.372Z,5.98
2023-01-25T01:18:54.276Z,6.03
2023-01-25T01:21:21.665Z,5.93
2023-01-25T01:23:48.637Z,5.82
2023-01-25T01:26:17.099Z,5.81
2023-01-25T01:28:43.766Z,5.78
2023-01-25T01:31:16.307Z,5.85
2023-01-25T01:33:42.917Z,5.87
2023-01-25T01:36:12.268Z,5.89
2023-01-25T01:38:38.814Z,5.98
2023-01-25T01:41:05.852Z,6.09
2023-01-25T01:43:32.658Z,6.10
2023-01-25T01:46:01.813Z,6.11
2023-01-25T01:48:37.887Z,6.21
2023-01-25T01:51:22.279Z,6.16
2023-01-25T01:53:54.832Z,6.12
2023-01-25T01:56:31.463Z,6.09
2023-01-25T01:58:59.261Z,6.13
2023-01-25T02:01:26.119Z,6.22
2023-01-25T02:03:53.692Z,6.01
2023-01-25T02:06:38.869Z,6.14
2023-01-25T02:09:05.628Z,6.03
2023-01-25T02:11:34.190Z,6.00
2023-01-25T02:14:01.934Z,6.01
2023-01-25T02:16:29.203Z,6.05
2023-01-25T02:18:59.017Z,6.09
2023-01-25T02:21:25.733Z,6.18
2023-01-25T02:23:59.855Z,6.18
2023-01-25T02:26:26.818Z,6.22
2023-01-25T02:28:59.194Z,6.01
2023-01-25T02:31:26.173Z,6.05
2023-01-25T02:33:52.877Z,6.04
2023-01-25T02:36:36.108Z,6.10
2023-01-25T02:39:20.143Z,6.13
2023-01-25T02:41:50.947Z,6.23
2023-01-25T02:44:25.624Z,6.12
2023-01-25T02:46:52.323Z,6.16
2023-01-25T02:49:19.281Z,6.11
2023-01-25T02:51:49.091Z,6.11
2023-01-25T02:54:18.300Z,6.13
2023-01-25T02:56:45.171Z,6.16
2023-01-25T02:59:13.356Z,6.14
2023-01-25T03:01:42.095Z,6.12
2023-01-25T03:04:09.621Z,6.09
2023-01-25T03:06:36.734Z,6.10
2023-01-25T03:09:05.343Z,6.06
2023-01-25T03:11:32.286Z,6.11
2023-01-25T03:13:58.799Z,5.94
2023-01-25T03:16:25.578Z,5.98
2023-01-25T03:18:55.692Z,5.97
2023-01-25T03:21:23.831Z,5.88
2023-01-25T03:24:00.071Z,5.75
2023-01-25T03:26:28.100Z,5.73
2023-01-25T03:28:54.762Z,5.59
2023-01-25T03:31:21.416Z,5.41
2023-01-25T03:33:48.620Z,5.38
2023-01-25T03:36:15.423Z,5.45
2023-01-25T03:38:42.024Z,5.45
2023-01-25T03:41:08.948Z,5.43
2023-01-25T03:43:35.514Z,5.16
2023-01-25T03:46:02.545Z,4.91
2023-01-25T03:48:29.674Z,4.95
2023-01-25T03:50:58.707Z,5.02
2023-01-25T03:53:30.463Z,5.04
2023-01-25T03:56:08.256Z,4.90
2023-01-25T03:58:36.377Z,4.94
2023-01-25T04:01:04.486Z,5.04
2023-01-25T04:03:31.389Z,5.13
2023-01-25T04:05:59.293Z,5.14
2023-01-25T04:08:26.743Z,5.03
2023-01-25T04:11:01.619Z,4.94
2023-01-25T04:13:28.558Z,4.99
2023-01-25T04:15:55.506Z,5.04
2023-01-25T04:18:22.391Z,5.09
2023-01-25T04:20:53.969Z,5.11
2023-01-25T04:23:20.994Z,5.12
2023-01-25T04:26:00.994Z,5.05
2023-01-25T04:28:28.401Z,5.03
2023-01-25T04:30:55.447Z,4.97
2023-01-25T04:33:22.383Z,4.97
2023-01-25T04:35:49.084Z,4.95
2023-01-25T04:38:16.011Z,5.00
2023-01-25T04:40:43.770Z,5.00
2023-01-25T04:43:13.143Z,5.03
2023-01-25T04:45:40.131Z,5.03
2023-01-25T04:48:10.020Z,4.91
2023-01-25T04:50:37.944Z,4.92
2023-01-25T04:53:04.772Z,4.95
2023-01-25T04:55:33.598Z,4.93
2023-01-25T04:58:01.734Z,4.88
2023-01-25T05:00:29.206Z,4.73
2023-01-25T05:02:56.137Z,4.90
2023-01-25T05:05:22.879Z,4.93
2023-01-25T05:07:49.568Z,4.91
2023-01-25T05:10:16.144Z,4.86
2023-01-25T05:12:43.285Z,4.85
2023-01-25T05:15:10.493Z,4.76
2023-01-25T05:17:37.344Z,4.73
2023-01-25T05:20:04.421Z,4.75
2023-01-25T05:22:30.975Z,4.72
2023-01-25T05:24:59.172Z,4.66
2023-01-25T05:27:26.072Z,4.69
2023-01-25T05:29:52.753Z,4.67
2023-01-25T05:32:21.953Z,4.65
2023-01-25T05:34:49.009Z,4.63
2023-01-25T05:37:17.927Z,4.61
2023-01-25T05:39:45.001Z,4.59
2023-01-25T05:42:13.891Z,4.61
2023-01-25T05:44:40.502Z,4.52
2023-01-25T05:47:07.642Z,4.47
2023-01-25T05:49:34.236Z,4.53
2023-01-25T05:52:00.780Z,4.52
2023-01-25T05:54:27.328Z,4.53
2023-01-25T05:56:53.927Z,4.55
2023-01-25T05:59:20.504Z,4.52
2023-01-25T06:01:47.147Z,4.58
2023-01-25T06:04:17.199Z,4.47
2023-01-25T06:06:43.833Z,4.66
2023-01-25T06:09:13.569Z,4.68
2023-01-25T06:11:42.781Z,4.61
2023-01-25T06:14:09.271Z,4.57
2023-01-25T06:16:35.870Z,4.53
2023-01-25T06:19:04.802Z,4.52
2023-01-25T06:21:31.355Z,4.56
2023-01-25T06:23:57.908Z,4.59
2023-01-25T06:26:24.442Z,4.62
2023-01-25T06:28:52.671Z,4.66
2023-01-25T06:31:20.057Z,4.68
2023-01-25T06:33:50.211Z,4.64
2023-01-25T06:36:19.113Z,4.66
2023-01-25T06:38:52.826Z,4.71
2023-01-25T06:41:20.561Z,4.71
2023-01-25T06:43:49.924Z,4.78
2023-01-25T06:46:16.962Z,4.81
2023-01-25T06:48:43.497Z,4.88
2023-01-25T06:51:12.688Z,4.85
2023-01-25T06:53:41.900Z,4.84
2023-01-25T06:56:18.231Z,4.82
2023-01-25T06:58:46.034Z,4.75
2023-01-25T07:01:27.225Z,4.79
2023-01-25T07:03:56.000Z,4.73
2023-01-25T07:06:23.611Z,4.79
2023-01-25T07:08:50.855Z,4.83
2023-01-25T07:11:19.154Z,5.01
2023-01-25T07:13:47.689Z,5.08
2023-01-25T07:16:17.300Z,5.12
2023-01-25T07:18:44.402Z,5.23
2023-01-25T07:21:14.332Z,5.30
2023-01-25T07:23:41.712Z,5.36
2023-01-25T07:26:18.407Z,5.32
2023-01-25T07:28:46.099Z,5.39
2023-01-25T07:31:13.022Z,5.41
2023-01-25T07:33:39.705Z,5.45
2023-01-25T07:36:08.882Z,5.44
2023-01-25T07:38:36.640Z,5.45
2023-01-25T07:41:04.240Z,5.37
2023-01-25T07:43:31.454Z,5.37
2023-01-25T07:46:02.913Z,5.42
2023-01-25T07:48:29.665Z,5.43
2023-01-25T07:51:23.680Z,5.39
2023-01-25T07:53:52.736Z,5.39
2023-01-25T07:56:20.702Z,5.40
2023-01-25T07:58:47.757Z,5.42
2023-01-25T08:01:17.457Z,5.47
2023-01-25T08:03:44.897Z,5.51
2023-01-25T08:06:12.247Z,5.62
2023-01-25T08:08:49.206Z,5.65
2023-01-25T08:11:24.355Z,5.70
2023-01-25T08:13:51.568Z,5.81
2023-01-25T08:16:20.697Z,5.92
2023-01-25T08:18:55.012Z,6.05
2023-01-25T08:21:24.260Z,6.18
2023-01-25T08:23:51.669Z,6.18
2023-01-25T08:26:18.680Z,6.15
2023-01-25T08:28:45.495Z,6.12
2023-01-25T08:31:13.188Z,6.22
2023-01-25T08:33:40.946Z,6.31
2023-01-25T08:36:09.542Z,6.36
2023-01-25T08:38:37.307Z,6.42
2023-01-25T08:41:08.804Z,6.45
2023-01-25T08:43:35.801Z,6.44
2023-01-25T08:46:02.399Z,6.48
2023-01-25T08:48:29.271Z,6.48
2023-01-25T08:50:56.102Z,6.54
2023-01-25T08:53:22.885Z,6.58
2023-01-25T08:55:49.755Z,6.64
2023-01-25T08:58:19.817Z,6.76
2023-01-25T09:00:46.481Z,6.71
2023-01-25T09:03:13.757Z,6.69
2023-01-25T09:05:40.295Z,6.53
2023-01-25T09:08:10.463Z,6.43
2023-01-25T09:10:37.047Z,6.61
2023-01-25T09:13:03.614Z,6.63
2023-01-25T09:15:30.221Z,6.62
2023-01-25T09:17:57.332Z,6.55
2023-01-25T09:20:24.459Z,6.75
2023-01-25T09:22:51.051Z,6.69
2023-01-25T09:25:17.703Z,6.75
2023-01-25T09:27:44.368Z,6.80
2023-01-25T09:30:18.284Z,6.80
2023-01-25T09:32:45.700Z,6.96
2023-01-25T09:35:12.315Z,7.02
2023-01-25T09:37:39.119Z,7.10
2023-01-25T09:40:07.780Z,7.14
2023-01-25T09:42:57.771Z,7.00
2023-01-25T09:45:36.224Z,7.02
2023-01-25T09:48:17.881Z,6.90
2023-01-25T09:50:53.583Z,7.00
2023-01-25T09:53:25.566Z,7.12
2023-01-25T09:55:58.806Z,7.34
2023-01-25T09:58:33.930Z,7.36
2023-01-25T10:01:32.888Z,7.19
2023-01-25T10:04:24.988Z,7.15
2023-01-25T10:07:01.529Z,6.88
2023-01-25T10:09:56.144Z,6.92
2023-01-25T10:12:25.162Z,7.02
2023-01-25T10:14:52.578Z,7.04
2023-01-25T10:17:31.038Z,7.24
2023-01-25T10:20:16.028Z,7.31
2023-01-25T10:23:30.136Z,7.30
2023-01-25T10:26:14.578Z,7.42
2023-01-25T10:28:45.923Z,7.48
2023-01-25T10:31:20.674Z,7.35
2023-01-25T10:33:48.832Z,7.41
2023-01-25T10:36:17.955Z,7.60
2023-01-25T10:38:47.241Z,7.69
2023-01-25T10:41:47.533Z,7.69
2023-01-25T10:44:24.790Z,7.65
2023-01-25T10:46:51.416Z,7.66
2023-01-25T10:49:48.321Z,7.68
2023-01-25T10:52:23.167Z,7.60
2023-01-25T10:55:07.835Z,7.36
2023-01-25T10:57:35.719Z,7.23
2023-01-25T11:00:10.548Z,7.36
2023-01-25T11:02:45.448Z,7.45
2023-01-25T11:05:25.098Z,7.45
2023-01-25T11:07:51.961Z,7.55
2023-01-25T11:10:28.843Z,7.54
2023-01-25T11:13:29.449Z,7.54
2023-01-25T11:16:14.235Z,7.62
2023-01-25T11:18:51.630Z,7.55
2023-01-25T11:21:25.361Z,7.51
2023-01-25T11:23:58.145Z,7.51
2023-01-25T11:26:24.731Z,7.51
2023-01-25T11:29:07.656Z,7.60
2023-01-25T11:31:35.703Z,7.67
2023-01-25T11:34:02.391Z,7.73
2023-01-25T11:37:02.895Z,7.89
2023-01-25T11:40:03.293Z,7.82
2023-01-25T11:42:38.612Z,7.89
2023-01-25T11:45:43.887Z,7.89
2023-01-25T11:48:25.533Z,7.96
2023-01-25T11:51:17.694Z,7.93
2023-01-25T11:53:50.396Z,7.88
2023-01-25T11:56:22.877Z,7.87
2023-01-25T11:59:46.406Z,8.02
2023-01-25T12:02:31.386Z,8.10
2023-01-25T12:05:30.046Z,8.16
2023-01-25T12:08:20.974Z,8.33
2023-01-25T12:10:50.484Z,8.40
2023-01-25T12:13:48.347Z,8.34
2023-01-25T12:16:44.113Z,8.41
2023-01-25T12:19:32.513Z,8.44
2023-01-25T12:22:11.296Z,8.35
2023-01-25T12:24:51.394Z,8.40
2023-01-25T12:27:26.144Z,8.47
2023-01-25T12:30:00.041Z,8.59
2023-01-25T12:32:36.616Z,8.68
2023-01-25T12:35:06.223Z,8.70
2023-01-25T12:37:38.976Z,8.62
2023-01-25T12:40:14.693Z,8.51
2023-01-25T12:42:50.203Z,8.36
2023-01-25T12:45:29.148Z,8.45
2023-01-25T12:48:23.928Z,8.60
2023-01-25T12:50:58.567Z,8.61
2023-01-25T12:53:37.452Z,8.40
2023-01-25T12:56:09.675Z,8.30
2023-01-25T12:58:48.990Z,8.27
2023-01-25T13:01:25.938Z,8.38
2023-01-25T13:04:01.359Z,8.36
2023-01-25T13:06:33.784Z,8.44
2023-01-25T13:09:18.243Z,8.32
2023-01-25T13:11:46.670Z,8.44
2023-01-25T13:14:16.232Z,8.46
2023-01-25T13:16:45.496Z,8.49
2023-01-25T13:19:30.306Z,8.47
2023-01-25T13:21:58.565Z,8.36
2023-01-25T13:24:28.183Z,8.26
2023-01-25T13:26:54.736Z,8.19
2023-01-25T13:29:33.838Z,8.24
2023-01-25T13:32:01.677Z,8.26
2023-01-25T13:34:40.465Z,8.18
2023-01-25T13:37:28.964Z,8.27
2023-01-25T13:40:06.545Z,8.28
2023-01-25T13:42:39.436Z,8.33
2023-01-25T13:45:20.872Z,8.36
2023-01-25T13:48:23.689Z,8.39
2023-01-25T13:50:52.278Z,8.42
2023-01-25T13:53:21.984Z,8.38
2023-01-25T13:55:52.366Z,8.40
2023-01-25T13:58:25.458Z,8.34
2023-01-25T14:00:59.108Z,8.33
2023-01-25T14:03:39.297Z,8.16
2023-01-25T14:06:14.375Z,8.12
2023-01-25T14:08:44.074Z,8.05
2023-01-25T14:11:10.741Z,7.94
2023-01-25T14:13:37.343Z,8.04
2023-01-25T14:16:09.098Z,7.93
2023-01-25T14:18:38.618Z,7.92
2023-01-25T14:21:18.960Z,8.02
2023-01-25T14:23:46.347Z,8.04
2023-01-25T14:26:26.262Z,7.91
2023-01-25T14:29:02.017Z,7.93
2023-01-25T14:31:37.315Z,7.77
2023-01-25T14:34:06.143Z,7.82
2023-01-25T14:36:34.718Z,7.99
2023-01-25T14:39:04.448Z,8.02
2023-01-25T14:41:40.167Z,7.89
2023-01-25T14:44:15.192Z,7.89
2023-01-25T14:46:42.478Z,7.94
2023-01-25T14:49:29.445Z,7.85
2023-01-25T14:52:12.352Z,7.83
2023-01-25T14:54:52.212Z,7.83
2023-01-25T14:57:27.724Z,7.84
2023-01-25T14:59:55.900Z,7.87
2023-01-25T15:02:37.857Z,7.76
2023-01-25T15:05:14.723Z,7.81
2023-01-25T15:07:46.809Z,7.81
2023-01-25T15:10:18.503Z,7.79
2023-01-25T15:13:13.649Z,7.74
2023-01-25T15:16:00.430Z,7.64
2023-01-25T15:18:52.597Z,7.68
2023-01-25T15:21:27.564Z,7.66
2023-01-25T15:23:56.535Z,7.64
2023-01-25T15:26:31.103Z,7.64
2023-01-25T15:29:08.126Z,7.63
2023-01-25T15:31:37.721Z,7.62
2023-01-25T15:34:05.142Z,7.51
2023-01-25T15:36:32.323Z,7.53
2023-01-25T15:38:59.054Z,7.33
2023-01-25T15:41:25.710Z,7.30
2023-01-25T15:43:52.514Z,7.30
2023-01-25T15:46:22.687Z,7.19
2023-01-25T15:48:50.475Z,7.25
2023-01-25T15:51:17.241Z,7.17
2023-01-25T15:53:45.190Z,7.20
2023-01-25T15:56:18.919Z,7.22
2023-01-25T15:58:49.767Z,7.12
2023-01-25T16:01:16.692Z,7.18
2023-01-25T16:03:43.357Z,7.24
2023-01-25T16:06:15.657Z,7.21
2023-01-25T16:08:42.263Z,7.18
2023-01-25T16:11:08.768Z,7.14
2023-01-25T16:13:35.371Z,7.14
2023-01-25T16:16:02.217Z,7.15
2023-01-25T16:18:28.827Z,7.24
2023-01-25T16:20:55.466Z,7.26
2023-01-25T16:23:22.108Z,7.13
2023-01-25T16:25:49.511Z,7.08
2023-01-25T16:28:16.237Z,7.07
2023-01-25T16:30:45.139Z,6.89
2023-01-25T16:33:12.063Z,6.84
2023-01-25T16:35:38.635Z,6.82
2023-01-25T16:38:05.135Z,6.89
2023-01-25T16:40:39.978Z,6.78
2023-01-25T16:43:06.585Z,6.84
2023-01-25T16:45:33.327Z,6.73
2023-01-25T16:48:00.272Z,6.66
2023-01-25T16:50:26.856Z,6.67
2023-01-25T16:52:54.927Z,6.64
2023-01-25T16:55:21.568Z,6.34
2023-01-25T16:57:51.796Z,6.27
2023-01-25T17:00:18.650Z,6.33
2023-01-25T17:02:58.148Z,6.35
2023-01-25T17:05:27.828Z,6.28
2023-01-25T17:07:54.468Z,6.02
2023-01-25T17:10:21.039Z,5.95
2023-01-25T17:12:47.791Z,5.93
2023-01-25T17:15:14.408Z,5.96
2023-01-25T17:17:41.205Z,5.96
2023-01-25T17:20:09.117Z,6.00
2023-01-25T17:22:37.614Z,6.03
2023-01-25T17:25:05.455Z,6.10
2023-01-25T17:27:32.429Z,6.06
2023-01-25T17:29:59.115Z,6.03
2023-01-25T17:32:25.971Z,6.05
2023-01-25T17:34:53.811Z,6.04
2023-01-25T17:37:20.563Z,5.99
2023-01-25T17:39:47.742Z,5.98
2023-01-25T17:42:14.748Z,5.84
2023-01-25T17:44:41.439Z,5.70
2023-01-25T17:47:08.064Z,5.77
2023-01-25T17:49:34.697Z,5.83
2023-01-25T17:52:02.830Z,5.93
2023-01-25T17:54:29.408Z,5.86
2023-01-25T17:56:56.442Z,6.01
2023-01-25T17:59:23.457Z,5.91
2023-01-25T18:01:50.570Z,5.84
2023-01-25T18:04:18.069Z,5.83
2023-01-25T18:06:45.209Z,5.87
2023-01-25T18:09:11.948Z,5.88
2023-01-25T18:11:40.913Z,5.70
2023-01-25T18:14:12.088Z,5.69
2023-01-25T18:16:40.503Z,5.62
2023-01-25T18:19:08.244Z,5.65
2023-01-25T18:21:35.661Z,5.62
2023-01-25T18:24:07.621Z,5.44
2023-01-25T18:26:37.151Z,5.60
2023-01-25T18:29:09.787Z,5.53
2023-01-25T18:31:36.725Z,5.57
2023-01-25T18:34:03.837Z,5.63
2023-01-25T18:36:30.456Z,5.60
2023-01-25T18:38:58.335Z,5.60
2023-01-25T18:41:24.918Z,5.60
2023-01-25T18:43:51.854Z,5.70
2023-01-25T18:46:18.676Z,5.71
2023-01-25T18:48:47.263Z,5.52
2023-01-25T18:51:17.801Z,5.39
2023-01-25T18:53:47.533Z,5.39
2023-01-25T18:56:19.781Z,5.28
2023-01-25T18:58:47.562Z,5.33
2023-01-25T19:01:22.395Z,5.41
2023-01-25T19:03:51.165Z,5.41
2023-01-25T19:06:19.505Z,5.29
2023-01-25T19:08:51.768Z,5.25
2023-01-25T19:11:20.325Z,5.25
2023-01-25T19:13:47.968Z,5.24
2023-01-25T19:16:21.001Z,4.98
2023-01-25T19:18:52.253Z,4.91
2023-01-25T19:21:21.488Z,4.83
2023-01-25T19:23:49.269Z,4.86
2023-01-25T19:26:18.551Z,4.67
2023-01-25T19:28:46.219Z,4.75
2023-01-25T19:31:20.773Z,4.89
2023-01-25T19:33:48.853Z,4.97
2023-01-25T19:36:21.039Z,5.11
2023-01-25T19:38:48.917Z,5.13
2023-01-25T19:41:21.346Z,5.11
2023-01-25T19:43:48.659Z,5.12
2023-01-25T19:46:16.875Z,5.12
2023-01-25T19:48:44.990Z,4.97
2023-01-25T19:51:15.877Z,5.15
2023-01-25T19:53:46.539Z,5.13
2023-01-25T19:56:16.207Z,5.14
2023-01-25T19:58:48.481Z,5.10
2023-01-25T20:01:20.437Z,5.15
2023-01-25T20:03:47.842Z,5.20
2023-01-25T20:06:15.462Z,4.96
2023-01-25T20:08:44.028Z,4.98
2023-01-25T20:11:14.745Z,4.92
2023-01-25T20:13:42.509Z,4.75
2023-01-25T20:16:11.770Z,4.73
2023-01-25T20:18:38.775Z,4.71
2023-01-25T20:21:08.283Z,4.46
2023-01-25T20:23:36.732Z,4.28
2023-01-25T20:26:16.470Z,4.37
2023-01-25T20:28:44.847Z,4.50
2023-01-25T20:31:21.546Z,4.40
2023-01-25T20:33:49.069Z,4.41
2023-01-25T20:36:15.840Z,4.33
2023-01-25T20:38:42.684Z,4.29
2023-01-25T20:41:14.236Z,4.30
2023-01-25T20:43:57.143Z,4.40
2023-01-25T20:46:24.228Z,4.52
2023-01-25T20:48:52.176Z,4.54
2023-01-25T20:51:21.429Z,4.54
2023-01-25T20:53:49.874Z,4.48
2023-01-25T20:56:18.215Z,4.44
2023-01-25T20:58:50.308Z,4.39
2023-01-25T21:01:28.353Z,4.38
2023-01-25T21:03:56.877Z,4.36
2023-01-25T21:06:24.915Z,4.43
2023-01-25T21:08:51.799Z,4.35
2023-01-25T21:11:18.812Z,4.40
2023-01-25T21:13:45.420Z,4.34
2023-01-25T21:16:15.326Z,4.42
2023-01-25T21:18:48.431Z,4.40
2023-01-25T21:21:23.717Z,4.39
2023-01-25T21:23:50.895Z,4.41
2023-01-25T21:26:26.294Z,4.41
2023-01-25T21:28:57.973Z,4.45
2023-01-25T21:31:29.788Z,4.53
2023-01-25T21:33:56.907Z,4.53
2023-01-25T21:36:23.895Z,4.62
2023-01-25T21:38:52.375Z,4.68
2023-01-25T21:41:24.857Z,4.75
2023-01-25T21:44:11.277Z,4.59
2023-01-25T21:46:38.830Z,4.40
2023-01-25T21:49:28.543Z,4.53
2023-01-25T21:52:02.012Z,4.50
2023-01-25T21:54:38.561Z,4.54
2023-01-25T21:57:11.724Z,4.43
2023-01-25T21:59:39.799Z,4.41
2023-01-25T22:02:10.630Z,4.46
2023-01-25T22:04:38.077Z,4.51
2023-01-25T22:07:06.428Z,4.36
2023-01-25T22:09:33.000Z,4.18
2023-01-25T22:11:59.610Z,3.93
2023-01-25T22:14:26.207Z,4.06
2023-01-25T22:16:53.149Z,3.87
2023-01-25T22:19:19.830Z,3.97
2023-01-25T22:21:46.456Z,4.03
2023-01-25T22:24:13.398Z,4.10
2023-01-25T22:26:45.766Z,4.08
2023-01-25T22:29:13.087Z,4.08
2023-01-25T22:31:39.918Z,4.07
2023-01-25T22:34:07.264Z,4.07
2023-01-25T22:36:34.173Z,4.16
2023-01-25T22:39:00.910Z,3.99
2023-01-25T22:41:29.973Z,3.92
2023-01-25T22:43:57.039Z,3.94
2023-01-25T22:46:26.222Z,3.90
2023-01-25T22:48:52.804Z,3.86
2023-01-25T22:51:24.498Z,3.75
2023-01-25T22:53:52.000Z,3.85
2023-01-25T22:56:21.328Z,3.95
2023-01-25T22:58:48.479Z,4.03
2023-01-25T23:01:19.052Z,4.03
2023-01-25T23:03:45.893Z,4.02
2023-01-25T23:06:15.145Z,4.09
2023-01-25T23:08:42.187Z,3.96
2023-01-25T23:11:17.864Z,4.01
2023-01-25T23:14:05.627Z,3.99
2023-01-25T23:16:32.879Z,3.99
2023-01-25T23:18:59.872Z,3.95
2023-01-25T23:21:28.669Z,4.01
2023-01-25T23:23:56.558Z,3.98
2023-01-25T23:26:24.418Z,3.89
2023-01-25T23:28:56.800Z,3.81
2023-01-25T23:31:25.363Z,3.83
2023-01-25T23:34:00.472Z,3.87
2023-01-25T23:36:35.212Z,3.95
2023-01-25T23:39:02.250Z,4.00
2023-01-25T23:41:30.297Z,4.03
2023-01-25T23:43:58.057Z,3.94
2023-01-25T23:46:25.571Z,4.01
2023-01-25T23:48:52.443Z,4.05
2023-01-25T23:51:19.903Z,3.95
2023-01-25T23:53:47.383Z,3.95
2023-01-25T23:56:19.520Z,3.95
2023-01-25T23:58:46.804Z,3.82
